sensor_id;sensor_type;location;lat;lon;timestamp;temperature;humidity
3075;DHT22;1548;51.716;8.748;2022-12-22T00:02:19;9.10;84.10
3075;DHT22;1548;51.716;8.748;2022-12-22T00:05:21;9.10;84.30
3075;DHT22;1548;51.716;8.748;2022-12-22T00:08:06;9.20;84.20
3075;DHT22;1548;51.716;8.748;2022-12-22T00:10:51;9.20;84.30
3075;DHT22;1548;51.716;8.748;2022-12-22T00:13:36;9.20;84.20
3075;DHT22;1548;51.716;8.748;2022-12-22T00:16:21;9.20;84.20
3075;DHT22;1548;51.716;8.748;2022-12-22T00:19:12;9.20;84.20
3075;DHT22;1548;51.716;8.748;2022-12-22T00:22:00;9.20;84.30
3075;DHT22;1548;51.716;8.748;2022-12-22T00:24:45;9.20;84.20
3075;DHT22;1548;51.716;8.748;2022-12-22T00:27:29;9.20;84.20
3075;DHT22;1548;51.716;8.748;2022-12-22T00:30:15;9.20;84.10
3075;DHT22;1548;51.716;8.748;2022-12-22T00:33:00;9.30;84.20
3075;DHT22;1548;51.716;8.748;2022-12-22T00:35:45;9.30;84.30
3075;DHT22;1548;51.716;8.748;2022-12-22T00:38:29;9.20;84.10
3075;DHT22;1548;51.716;8.748;2022-12-22T00:41:13;9.10;84.10
3075;DHT22;1548;51.716;8.748;2022-12-22T00:43:57;9.20;84.30
3075;DHT22;1548;51.716;8.748;2022-12-22T00:46:43;9.20;84.10
3075;DHT22;1548;51.716;8.748;2022-12-22T00:49:30;9.30;84.20
3075;DHT22;1548;51.716;8.748;2022-12-22T00:52:15;9.20;84.20
3075;DHT22;1548;51.716;8.748;2022-12-22T00:55:00;9.30;84.30
3075;DHT22;1548;51.716;8.748;2022-12-22T00:57:45;9.30;84.10
3075;DHT22;1548;51.716;8.748;2022-12-22T01:00:29;9.40;84.20
3075;DHT22;1548;51.716;8.748;2022-12-22T01:03:13;9.40;84.30
3075;DHT22;1548;51.716;8.748;2022-12-22T01:06:00;9.40;84.10
3075;DHT22;1548;51.716;8.748;2022-12-22T01:08:44;9.40;84.30
3075;DHT22;1548;51.716;8.748;2022-12-22T01:11:29;9.40;84.10
3075;DHT22;1548;51.716;8.748;2022-12-22T01:14:15;9.40;84.20
3075;DHT22;1548;51.716;8.748;2022-12-22T01:17:00;9.30;84.20
3075;DHT22;1548;51.716;8.748;2022-12-22T01:19:44;9.30;84.20
3075;DHT22;1548;51.716;8.748;2022-12-22T01:22:29;9.30;84.20
3075;DHT22;1548;51.716;8.748;2022-12-22T01:25:16;9.30;84.10
3075;DHT22;1548;51.716;8.748;2022-12-22T01:28:00;9.20;84.00
3075;DHT22;1548;51.716;8.748;2022-12-22T01:30:44;9.30;84.00
3075;DHT22;1548;51.716;8.748;2022-12-22T01:33:29;9.40;84.20
3075;DHT22;1548;51.716;8.748;2022-12-22T01:36:13;9.30;84.00
3075;DHT22;1548;51.716;8.748;2022-12-22T01:38:57;9.40;84.20
3075;DHT22;1548;51.716;8.748;2022-12-22T01:41:41;9.40;84.20
3075;DHT22;1548;51.716;8.748;2022-12-22T01:44:26;9.40;84.20
3075;DHT22;1548;51.716;8.748;2022-12-22T01:50:24;9.30;84.10
3075;DHT22;1548;51.716;8.748;2022-12-22T01:53:15;9.30;84.20
3075;DHT22;1548;51.716;8.748;2022-12-22T01:56:00;9.30;84.20
3075;DHT22;1548;51.716;8.748;2022-12-22T01:58:49;9.30;84.10
3075;DHT22;1548;51.716;8.748;2022-12-22T02:01:34;9.40;84.20
3075;DHT22;1548;51.716;8.748;2022-12-22T02:04:21;9.40;84.20
3075;DHT22;1548;51.716;8.748;2022-12-22T02:07:30;9.40;84.20
3075;DHT22;1548;51.716;8.748;2022-12-22T02:10:22;9.40;84.20
3075;DHT22;1548;51.716;8.748;2022-12-22T02:16:12;9.40;84.20
3075;DHT22;1548;51.716;8.748;2022-12-22T02:25:02;9.40;84.20
3075;DHT22;1548;51.716;8.748;2022-12-22T02:27:50;9.30;84.00
3075;DHT22;1548;51.716;8.748;2022-12-22T02:30:37;9.40;84.20
3075;DHT22;1548;51.716;8.748;2022-12-22T02:33:23;9.40;84.10
3075;DHT22;1548;51.716;8.748;2022-12-22T02:36:21;9.40;84.10
3075;DHT22;1548;51.716;8.748;2022-12-22T02:39:17;9.40;84.10
3075;DHT22;1548;51.716;8.748;2022-12-22T02:42:17;9.50;84.30
3075;DHT22;1548;51.716;8.748;2022-12-22T02:51:26;9.60;84.20
3075;DHT22;1548;51.716;8.748;2022-12-22T02:54:12;9.60;84.10
3075;DHT22;1548;51.716;8.748;2022-12-22T02:56:57;9.60;84.10
3075;DHT22;1548;51.716;8.748;2022-12-22T02:59:41;9.60;84.20
3075;DHT22;1548;51.716;8.748;2022-12-22T03:02:25;9.60;84.10
3075;DHT22;1548;51.716;8.748;2022-12-22T03:05:09;9.50;84.10
3075;DHT22;1548;51.716;8.748;2022-12-22T03:07:53;9.50;84.10
3075;DHT22;1548;51.716;8.748;2022-12-22T03:10:37;9.50;84.10
3075;DHT22;1548;51.716;8.748;2022-12-22T03:13:21;9.50;84.20
3075;DHT22;1548;51.716;8.748;2022-12-22T03:16:05;9.50;84.10
3075;DHT22;1548;51.716;8.748;2022-12-22T03:18:49;9.40;84.20
3075;DHT22;1548;51.716;8.748;2022-12-22T03:21:33;9.30;84.10
3075;DHT22;1548;51.716;8.748;2022-12-22T03:24:17;9.20;84.10
3075;DHT22;1548;51.716;8.748;2022-12-22T03:27:01;9.20;84.10
3075;DHT22;1548;51.716;8.748;2022-12-22T03:29:27;9.10;84.10
3075;DHT22;1548;51.716;8.748;2022-12-22T03:31:52;9.10;84.10
3075;DHT22;1548;51.716;8.748;2022-12-22T03:34:18;9.10;84.10
3075;DHT22;1548;51.716;8.748;2022-12-22T03:36:43;9.10;84.10
3075;DHT22;1548;51.716;8.748;2022-12-22T03:39:09;9.00;84.10
3075;DHT22;1548;51.716;8.748;2022-12-22T03:41:34;8.90;84.20
3075;DHT22;1548;51.716;8.748;2022-12-22T03:44:18;8.90;84.20
3075;DHT22;1548;51.716;8.748;2022-12-22T03:47:02;8.90;84.20
3075;DHT22;1548;51.716;8.748;2022-12-22T03:49:28;8.80;84.30
3075;DHT22;1548;51.716;8.748;2022-12-22T03:51:54;8.70;84.40
3075;DHT22;1548;51.716;8.748;2022-12-22T03:54:21;8.80;84.20
3075;DHT22;1548;51.716;8.748;2022-12-22T03:56:48;8.80;84.30
3075;DHT22;1548;51.716;8.748;2022-12-22T03:59:14;8.90;84.40
3075;DHT22;1548;51.716;8.748;2022-12-22T04:01:45;8.90;84.20
3075;DHT22;1548;51.716;8.748;2022-12-22T04:04:11;9.00;84.30
3075;DHT22;1548;51.716;8.748;2022-12-22T04:06:37;9.00;84.20
3075;DHT22;1548;51.716;8.748;2022-12-22T04:09:03;9.00;84.30
3075;DHT22;1548;51.716;8.748;2022-12-22T04:11:29;9.00;84.30
3075;DHT22;1548;51.716;8.748;2022-12-22T04:14:13;8.90;84.40
3075;DHT22;1548;51.716;8.748;2022-12-22T04:16:39;8.90;84.40
3075;DHT22;1548;51.716;8.748;2022-12-22T04:19:04;8.90;84.40
3075;DHT22;1548;51.716;8.748;2022-12-22T04:21:31;8.80;84.40
3075;DHT22;1548;51.716;8.748;2022-12-22T04:23:56;8.90;84.40
3075;DHT22;1548;51.716;8.748;2022-12-22T04:26:23;8.80;84.30
3075;DHT22;1548;51.716;8.748;2022-12-22T04:28:50;8.70;84.30
3075;DHT22;1548;51.716;8.748;2022-12-22T04:31:16;8.70;84.40
3075;DHT22;1548;51.716;8.748;2022-12-22T04:33:43;8.70;84.30
3075;DHT22;1548;51.716;8.748;2022-12-22T04:36:09;8.80;84.30
3075;DHT22;1548;51.716;8.748;2022-12-22T04:38:35;8.80;84.40
3075;DHT22;1548;51.716;8.748;2022-12-22T04:41:01;8.90;84.40
3075;DHT22;1548;51.716;8.748;2022-12-22T04:43:26;8.80;84.40
3075;DHT22;1548;51.716;8.748;2022-12-22T04:45:53;8.90;84.30
3075;DHT22;1548;51.716;8.748;2022-12-22T04:48:19;8.90;84.40
3075;DHT22;1548;51.716;8.748;2022-12-22T04:50:45;8.90;84.30
3075;DHT22;1548;51.716;8.748;2022-12-22T04:53:10;8.90;84.50
3075;DHT22;1548;51.716;8.748;2022-12-22T04:55:36;8.80;84.40
3075;DHT22;1548;51.716;8.748;2022-12-22T04:58:01;8.90;84.40
3075;DHT22;1548;51.716;8.748;2022-12-22T05:00:27;8.90;84.60
3075;DHT22;1548;51.716;8.748;2022-12-22T05:02:52;8.90;84.50
3075;DHT22;1548;51.716;8.748;2022-12-22T05:05:18;8.90;84.40
3075;DHT22;1548;51.716;8.748;2022-12-22T05:07:44;8.90;84.50
3075;DHT22;1548;51.716;8.748;2022-12-22T05:10:10;8.90;84.20
3075;DHT22;1548;51.716;8.748;2022-12-22T05:12:36;9.00;84.30
3075;DHT22;1548;51.716;8.748;2022-12-22T05:15:23;9.00;84.40
3075;DHT22;1548;51.716;8.748;2022-12-22T05:17:49;9.00;84.30
3075;DHT22;1548;51.716;8.748;2022-12-22T05:20:14;9.00;84.30
3075;DHT22;1548;51.716;8.748;2022-12-22T05:22:41;9.10;84.40
3075;DHT22;1548;51.716;8.748;2022-12-22T05:25:07;9.10;84.30
3075;DHT22;1548;51.716;8.748;2022-12-22T05:27:33;9.10;84.40
3075;DHT22;1548;51.716;8.748;2022-12-22T05:29:59;9.10;84.30
3075;DHT22;1548;51.716;8.748;2022-12-22T05:32:24;9.20;84.40
3075;DHT22;1548;51.716;8.748;2022-12-22T05:34:50;9.20;84.40
3075;DHT22;1548;51.716;8.748;2022-12-22T05:37:16;9.20;84.50
3075;DHT22;1548;51.716;8.748;2022-12-22T05:39:41;9.20;84.30
3075;DHT22;1548;51.716;8.748;2022-12-22T05:42:07;9.30;84.30
3075;DHT22;1548;51.716;8.748;2022-12-22T05:44:32;9.30;84.30
3075;DHT22;1548;51.716;8.748;2022-12-22T05:46:58;9.40;84.40
3075;DHT22;1548;51.716;8.748;2022-12-22T05:49:23;9.30;84.40
3075;DHT22;1548;51.716;8.748;2022-12-22T05:51:49;9.40;84.40
3075;DHT22;1548;51.716;8.748;2022-12-22T05:54:16;9.30;84.40
3075;DHT22;1548;51.716;8.748;2022-12-22T05:56:41;9.40;84.30
3075;DHT22;1548;51.716;8.748;2022-12-22T05:59:08;9.40;84.50
3075;DHT22;1548;51.716;8.748;2022-12-22T06:01:34;9.40;84.10
3075;DHT22;1548;51.716;8.748;2022-12-22T06:03:59;9.50;84.40
3075;DHT22;1548;51.716;8.748;2022-12-22T06:06:25;9.50;84.40
3075;DHT22;1548;51.716;8.748;2022-12-22T06:08:50;9.50;84.50
3075;DHT22;1548;51.716;8.748;2022-12-22T06:11:16;9.50;84.30
3075;DHT22;1548;51.716;8.748;2022-12-22T06:13:44;9.50;84.30
3075;DHT22;1548;51.716;8.748;2022-12-22T06:16:10;9.50;84.40
3075;DHT22;1548;51.716;8.748;2022-12-22T06:18:35;9.60;84.40
3075;DHT22;1548;51.716;8.748;2022-12-22T06:21:01;9.50;84.50
3075;DHT22;1548;51.716;8.748;2022-12-22T06:23:27;9.50;84.50
3075;DHT22;1548;51.716;8.748;2022-12-22T06:26:00;9.50;84.30
3075;DHT22;1548;51.716;8.748;2022-12-22T06:28:26;9.50;84.40
3075;DHT22;1548;51.716;8.748;2022-12-22T06:30:52;9.60;84.30
3075;DHT22;1548;51.716;8.748;2022-12-22T06:33:18;9.50;84.40
3075;DHT22;1548;51.716;8.748;2022-12-22T06:35:44;9.50;84.30
3075;DHT22;1548;51.716;8.748;2022-12-22T06:38:09;9.50;84.40
3075;DHT22;1548;51.716;8.748;2022-12-22T06:40:35;9.40;84.20
3075;DHT22;1548;51.716;8.748;2022-12-22T06:43:01;9.50;84.30
3075;DHT22;1548;51.716;8.748;2022-12-22T06:45:40;9.40;84.20
3075;DHT22;1548;51.716;8.748;2022-12-22T06:48:07;9.50;84.30
3075;DHT22;1548;51.716;8.748;2022-12-22T06:50:33;9.50;84.40
3075;DHT22;1548;51.716;8.748;2022-12-22T06:53:00;9.50;84.20
3075;DHT22;1548;51.716;8.748;2022-12-22T06:55:25;9.50;84.40
3075;DHT22;1548;51.716;8.748;2022-12-22T06:57:51;9.50;84.40
3075;DHT22;1548;51.716;8.748;2022-12-22T07:00:17;9.50;84.40
3075;DHT22;1548;51.716;8.748;2022-12-22T07:02:43;9.60;84.20
3075;DHT22;1548;51.716;8.748;2022-12-22T07:05:08;9.60;84.20
3075;DHT22;1548;51.716;8.748;2022-12-22T07:07:34;9.60;84.20
3075;DHT22;1548;51.716;8.748;2022-12-22T07:09:59;9.70;84.30
3075;DHT22;1548;51.716;8.748;2022-12-22T07:12:25;9.70;84.40
3075;DHT22;1548;51.716;8.748;2022-12-22T07:14:51;9.70;84.30
3075;DHT22;1548;51.716;8.748;2022-12-22T07:17:17;9.70;84.20
3075;DHT22;1548;51.716;8.748;2022-12-22T07:19:42;9.70;84.40
3075;DHT22;1548;51.716;8.748;2022-12-22T07:22:08;9.60;84.40
3075;DHT22;1548;51.716;8.748;2022-12-22T07:24:34;9.60;84.20
3075;DHT22;1548;51.716;8.748;2022-12-22T07:26:59;9.70;84.10
3075;DHT22;1548;51.716;8.748;2022-12-22T07:29:25;9.70;84.40
3075;DHT22;1548;51.716;8.748;2022-12-22T07:31:51;9.80;84.30
3075;DHT22;1548;51.716;8.748;2022-12-22T07:34:16;9.70;84.20
3075;DHT22;1548;51.716;8.748;2022-12-22T07:36:42;9.80;84.40
3075;DHT22;1548;51.716;8.748;2022-12-22T07:39:08;9.70;84.30
3075;DHT22;1548;51.716;8.748;2022-12-22T07:41:34;9.80;84.20
3075;DHT22;1548;51.716;8.748;2022-12-22T07:44:18;9.80;84.30
3075;DHT22;1548;51.716;8.748;2022-12-22T07:46:44;9.70;84.40
3075;DHT22;1548;51.716;8.748;2022-12-22T07:49:10;9.60;84.10
3075;DHT22;1548;51.716;8.748;2022-12-22T07:51:56;9.60;84.50
3075;DHT22;1548;51.716;8.748;2022-12-22T07:54:22;9.50;84.30
3075;DHT22;1548;51.716;8.748;2022-12-22T07:56:47;9.60;84.30
3075;DHT22;1548;51.716;8.748;2022-12-22T07:59:14;9.60;84.20
3075;DHT22;1548;51.716;8.748;2022-12-22T08:01:40;9.60;84.40
3075;DHT22;1548;51.716;8.748;2022-12-22T08:04:07;9.60;84.30
3075;DHT22;1548;51.716;8.748;2022-12-22T08:06:33;9.60;84.30
3075;DHT22;1548;51.716;8.748;2022-12-22T08:08:59;9.60;84.20
3075;DHT22;1548;51.716;8.748;2022-12-22T08:11:25;9.70;84.20
3075;DHT22;1548;51.716;8.748;2022-12-22T08:13:50;9.80;84.40
3075;DHT22;1548;51.716;8.748;2022-12-22T08:16:16;9.80;84.20
3075;DHT22;1548;51.716;8.748;2022-12-22T08:18:43;10.00;84.30
3075;DHT22;1548;51.716;8.748;2022-12-22T08:21:09;10.00;84.30
3075;DHT22;1548;51.716;8.748;2022-12-22T08:23:35;10.00;84.20
3075;DHT22;1548;51.716;8.748;2022-12-22T08:26:08;10.10;84.30
3075;DHT22;1548;51.716;8.748;2022-12-22T08:28:39;10.00;84.40
3075;DHT22;1548;51.716;8.748;2022-12-22T08:31:06;9.90;84.40
3075;DHT22;1548;51.716;8.748;2022-12-22T08:33:32;9.90;84.40
3075;DHT22;1548;51.716;8.748;2022-12-22T08:35:57;9.80;84.30
3075;DHT22;1548;51.716;8.748;2022-12-22T08:38:24;9.70;84.20
3075;DHT22;1548;51.716;8.748;2022-12-22T08:40:49;9.60;84.10
3075;DHT22;1548;51.716;8.748;2022-12-22T08:43:16;9.70;84.30
3075;DHT22;1548;51.716;8.748;2022-12-22T08:45:42;9.70;84.20
3075;DHT22;1548;51.716;8.748;2022-12-22T08:48:09;9.70;84.40
3075;DHT22;1548;51.716;8.748;2022-12-22T08:50:35;9.60;84.30
3075;DHT22;1548;51.716;8.748;2022-12-22T08:53:06;9.60;84.20
3075;DHT22;1548;51.716;8.748;2022-12-22T08:55:31;9.70;84.40
3075;DHT22;1548;51.716;8.748;2022-12-22T08:57:57;9.50;84.30
3075;DHT22;1548;51.716;8.748;2022-12-22T09:00:23;9.50;84.30
3075;DHT22;1548;51.716;8.748;2022-12-22T09:02:49;9.60;84.20
3075;DHT22;1548;51.716;8.748;2022-12-22T09:05:15;9.60;84.20
3075;DHT22;1548;51.716;8.748;2022-12-22T09:07:40;9.80;84.20
3075;DHT22;1548;51.716;8.748;2022-12-22T09:10:08;9.80;84.30
3075;DHT22;1548;51.716;8.748;2022-12-22T09:12:34;9.90;84.20
3075;DHT22;1548;51.716;8.748;2022-12-22T09:15:00;10.00;84.20
3075;DHT22;1548;51.716;8.748;2022-12-22T09:17:26;10.00;84.30
3075;DHT22;1548;51.716;8.748;2022-12-22T09:19:51;10.00;84.30
3075;DHT22;1548;51.716;8.748;2022-12-22T09:22:17;10.10;84.40
3075;DHT22;1548;51.716;8.748;2022-12-22T09:24:43;10.00;84.30
3075;DHT22;1548;51.716;8.748;2022-12-22T09:27:08;10.10;84.30
3075;DHT22;1548;51.716;8.748;2022-12-22T09:29:39;10.10;84.40
3075;DHT22;1548;51.716;8.748;2022-12-22T09:32:05;10.10;84.40
3075;DHT22;1548;51.716;8.748;2022-12-22T09:34:30;10.00;84.30
3075;DHT22;1548;51.716;8.748;2022-12-22T09:36:56;10.00;84.40
3075;DHT22;1548;51.716;8.748;2022-12-22T09:39:22;9.70;84.20
3075;DHT22;1548;51.716;8.748;2022-12-22T09:41:52;9.50;83.90
3075;DHT22;1548;51.716;8.748;2022-12-22T09:44:31;9.40;84.00
3075;DHT22;1548;51.716;8.748;2022-12-22T09:47:00;9.30;83.90
3075;DHT22;1548;51.716;8.748;2022-12-22T09:49:27;9.30;83.90
3075;DHT22;1548;51.716;8.748;2022-12-22T09:51:58;9.30;83.90
3075;DHT22;1548;51.716;8.748;2022-12-22T09:54:25;9.20;83.90
3075;DHT22;1548;51.716;8.748;2022-12-22T09:56:50;9.20;83.90
3075;DHT22;1548;51.716;8.748;2022-12-22T09:59:18;9.20;84.00
3075;DHT22;1548;51.716;8.748;2022-12-22T10:02:02;9.10;83.90
3075;DHT22;1548;51.716;8.748;2022-12-22T10:04:52;9.00;84.00
3075;DHT22;1548;51.716;8.748;2022-12-22T10:07:34;9.00;84.00
3075;DHT22;1548;51.716;8.748;2022-12-22T10:10:20;9.00;84.10
3075;DHT22;1548;51.716;8.748;2022-12-22T10:12:50;8.90;84.10
3075;DHT22;1548;51.716;8.748;2022-12-22T10:15:15;8.90;84.20
3075;DHT22;1548;51.716;8.748;2022-12-22T10:17:41;8.90;84.20
3075;DHT22;1548;51.716;8.748;2022-12-22T10:20:25;8.80;84.30
3075;DHT22;1548;51.716;8.748;2022-12-22T10:22:56;8.80;84.30
3075;DHT22;1548;51.716;8.748;2022-12-22T10:25:45;8.80;84.30
3075;DHT22;1548;51.716;8.748;2022-12-22T10:28:29;8.80;84.30
3075;DHT22;1548;51.716;8.748;2022-12-22T10:31:18;8.80;84.40
3075;DHT22;1548;51.716;8.748;2022-12-22T10:33:46;8.80;84.50
3075;DHT22;1548;51.716;8.748;2022-12-22T10:36:14;8.90;84.50
3075;DHT22;1548;51.716;8.748;2022-12-22T10:39:05;8.90;84.60
3075;DHT22;1548;51.716;8.748;2022-12-22T10:41:45;8.80;84.60
3075;DHT22;1548;51.716;8.748;2022-12-22T10:46:43;8.80;84.60
3075;DHT22;1548;51.716;8.748;2022-12-22T10:49:29;8.90;84.70
3075;DHT22;1548;51.716;8.748;2022-12-22T10:52:23;9.00;84.70
3075;DHT22;1548;51.716;8.748;2022-12-22T10:54:50;8.80;84.60
3075;DHT22;1548;51.716;8.748;2022-12-22T10:59:53;8.90;84.80
3075;DHT22;1548;51.716;8.748;2022-12-22T11:02:31;8.80;84.80
3075;DHT22;1548;51.716;8.748;2022-12-22T11:05:03;8.80;84.80
3075;DHT22;1548;51.716;8.748;2022-12-22T11:07:32;8.90;84.90
3075;DHT22;1548;51.716;8.748;2022-12-22T11:09:58;9.00;84.90
3075;DHT22;1548;51.716;8.748;2022-12-22T11:20:49;9.00;84.90
3075;DHT22;1548;51.716;8.748;2022-12-22T11:31:55;8.90;84.80
3075;DHT22;1548;51.716;8.748;2022-12-22T11:37:33;8.80;84.80
3075;DHT22;1548;51.716;8.748;2022-12-22T11:42:53;8.90;84.80
3075;DHT22;1548;51.716;8.748;2022-12-22T11:48:44;8.80;84.80
3075;DHT22;1548;51.716;8.748;2022-12-22T11:54:23;8.80;84.70
3075;DHT22;1548;51.716;8.748;2022-12-22T11:57:04;8.80;84.80
3075;DHT22;1548;51.716;8.748;2022-12-22T11:59:53;8.80;84.80
3075;DHT22;1548;51.716;8.748;2022-12-22T12:11:24;8.80;84.60
3075;DHT22;1548;51.716;8.748;2022-12-22T12:16:39;8.80;84.60
3075;DHT22;1548;51.716;8.748;2022-12-22T12:19:34;8.90;84.60
3075;DHT22;1548;51.716;8.748;2022-12-22T12:24:59;8.90;84.50
3075;DHT22;1548;51.716;8.748;2022-12-22T12:30:19;8.80;84.50
3075;DHT22;1548;51.716;8.748;2022-12-22T12:32:53;8.80;84.50
3075;DHT22;1548;51.716;8.748;2022-12-22T12:35:50;8.90;84.50
3075;DHT22;1548;51.716;8.748;2022-12-22T12:38:48;8.90;84.60
3075;DHT22;1548;51.716;8.748;2022-12-22T12:43:54;8.90;84.60
3075;DHT22;1548;51.716;8.748;2022-12-22T12:52:04;9.10;84.40
3075;DHT22;1548;51.716;8.748;2022-12-22T12:57:23;9.00;84.30
3075;DHT22;1548;51.716;8.748;2022-12-22T12:59:55;9.00;84.40
3075;DHT22;1548;51.716;8.748;2022-12-22T13:10:35;9.10;84.10
3075;DHT22;1548;51.716;8.748;2022-12-22T13:13:01;9.10;84.30
3075;DHT22;1548;51.716;8.748;2022-12-22T13:15:36;9.00;84.00
3075;DHT22;1548;51.716;8.748;2022-12-22T13:18:08;9.00;84.00
3075;DHT22;1548;51.716;8.748;2022-12-22T13:20:36;8.90;84.70
3075;DHT22;1548;51.716;8.748;2022-12-22T13:23:09;8.90;84.20
3075;DHT22;1548;51.716;8.748;2022-12-22T13:25:45;8.90;84.20
3075;DHT22;1548;51.716;8.748;2022-12-22T13:28:17;8.80;84.40
3075;DHT22;1548;51.716;8.748;2022-12-22T13:30:52;8.90;84.40
3075;DHT22;1548;51.716;8.748;2022-12-22T13:33:24;8.90;84.40
3075;DHT22;1548;51.716;8.748;2022-12-22T13:35:52;8.80;84.40
3075;DHT22;1548;51.716;8.748;2022-12-22T13:38:32;8.80;84.40
3075;DHT22;1548;51.716;8.748;2022-12-22T13:41:01;8.90;84.40
3075;DHT22;1548;51.716;8.748;2022-12-22T13:43:28;8.80;84.40
3075;DHT22;1548;51.716;8.748;2022-12-22T13:45:56;8.80;84.40
3075;DHT22;1548;51.716;8.748;2022-12-22T13:48:34;8.80;84.30
3075;DHT22;1548;51.716;8.748;2022-12-22T13:51:06;8.90;84.40
3075;DHT22;1548;51.716;8.748;2022-12-22T13:53:44;8.80;84.40
3075;DHT22;1548;51.716;8.748;2022-12-22T13:56:23;8.80;84.30
3075;DHT22;1548;51.716;8.748;2022-12-22T13:58:58;8.80;84.40
3075;DHT22;1548;51.716;8.748;2022-12-22T14:01:24;8.80;84.50
3075;DHT22;1548;51.716;8.748;2022-12-22T14:06:37;8.90;84.20
3075;DHT22;1548;51.716;8.748;2022-12-22T14:11:38;9.00;84.20
3075;DHT22;1548;51.716;8.748;2022-12-22T14:14:25;8.90;84.60
3075;DHT22;1548;51.716;8.748;2022-12-22T14:16:54;8.80;84.40
3075;DHT22;1548;51.716;8.748;2022-12-22T14:19:22;8.70;84.50
3075;DHT22;1548;51.716;8.748;2022-12-22T14:22:09;8.70;84.50
3075;DHT22;1548;51.716;8.748;2022-12-22T14:24:46;8.70;84.40
3075;DHT22;1548;51.716;8.748;2022-12-22T14:27:27;8.70;84.50
3075;DHT22;1548;51.716;8.748;2022-12-22T14:29:55;8.70;84.40
3075;DHT22;1548;51.716;8.748;2022-12-22T14:32:39;8.70;84.40
3075;DHT22;1548;51.716;8.748;2022-12-22T14:38:23;8.70;84.40
3075;DHT22;1548;51.716;8.748;2022-12-22T14:40:49;8.60;84.40
3075;DHT22;1548;51.716;8.748;2022-12-22T14:45:46;8.50;84.30
3075;DHT22;1548;51.716;8.748;2022-12-22T14:50:51;8.50;84.50
3075;DHT22;1548;51.716;8.748;2022-12-22T14:53:24;8.40;84.50
3075;DHT22;1548;51.716;8.748;2022-12-22T14:55:51;8.40;84.50
3075;DHT22;1548;51.716;8.748;2022-12-22T14:58:22;8.40;84.40
3075;DHT22;1548;51.716;8.748;2022-12-22T15:01:23;8.40;84.40
3075;DHT22;1548;51.716;8.748;2022-12-22T15:04:04;8.40;84.40
3075;DHT22;1548;51.716;8.748;2022-12-22T15:06:35;8.30;84.40
3075;DHT22;1548;51.716;8.748;2022-12-22T15:11:31;8.30;84.50
3075;DHT22;1548;51.716;8.748;2022-12-22T15:13:58;8.30;84.40
3075;DHT22;1548;51.716;8.748;2022-12-22T15:16:24;8.30;84.50
3075;DHT22;1548;51.716;8.748;2022-12-22T15:18:50;8.20;84.30
3075;DHT22;1548;51.716;8.748;2022-12-22T15:21:17;8.10;84.30
3075;DHT22;1548;51.716;8.748;2022-12-22T15:23:43;8.10;84.30
3075;DHT22;1548;51.716;8.748;2022-12-22T15:26:09;8.10;84.40
3075;DHT22;1548;51.716;8.748;2022-12-22T15:28:35;8.00;84.40
3075;DHT22;1548;51.716;8.748;2022-12-22T15:31:02;8.00;84.30
3075;DHT22;1548;51.716;8.748;2022-12-22T15:33:29;8.00;84.40
3075;DHT22;1548;51.716;8.748;2022-12-22T15:35:55;7.90;84.30
3075;DHT22;1548;51.716;8.748;2022-12-22T15:38:24;7.90;84.20
3075;DHT22;1548;51.716;8.748;2022-12-22T15:40:50;8.00;84.40
3075;DHT22;1548;51.716;8.748;2022-12-22T15:43:16;7.90;84.40
3075;DHT22;1548;51.716;8.748;2022-12-22T15:45:43;7.80;84.50
3075;DHT22;1548;51.716;8.748;2022-12-22T15:48:13;7.70;84.40
3075;DHT22;1548;51.716;8.748;2022-12-22T15:50:43;7.80;84.30
3075;DHT22;1548;51.716;8.748;2022-12-22T15:53:15;7.70;84.50
3075;DHT22;1548;51.716;8.748;2022-12-22T15:55:45;7.70;84.30
3075;DHT22;1548;51.716;8.748;2022-12-22T15:58:13;7.70;84.40
3075;DHT22;1548;51.716;8.748;2022-12-22T16:00:39;7.90;84.30
3075;DHT22;1548;51.716;8.748;2022-12-22T16:03:05;7.90;84.40
3075;DHT22;1548;51.716;8.748;2022-12-22T16:05:31;8.00;84.40
3075;DHT22;1548;51.716;8.748;2022-12-22T16:07:57;7.90;84.40
3075;DHT22;1548;51.716;8.748;2022-12-22T16:10:28;7.90;84.40
3075;DHT22;1548;51.716;8.748;2022-12-22T16:12:58;7.90;84.40
3075;DHT22;1548;51.716;8.748;2022-12-22T16:15:29;7.80;84.30
3075;DHT22;1548;51.716;8.748;2022-12-22T16:17:56;7.90;84.30
3075;DHT22;1548;51.716;8.748;2022-12-22T16:20:22;7.90;84.20
3075;DHT22;1548;51.716;8.748;2022-12-22T16:22:48;7.90;84.40
3075;DHT22;1548;51.716;8.748;2022-12-22T16:25:19;7.80;84.30
3075;DHT22;1548;51.716;8.748;2022-12-22T16:27:45;7.80;84.40
3075;DHT22;1548;51.716;8.748;2022-12-22T16:30:24;7.80;84.40
3075;DHT22;1548;51.716;8.748;2022-12-22T16:32:50;7.80;84.40
3075;DHT22;1548;51.716;8.748;2022-12-22T16:35:19;7.80;84.40
3075;DHT22;1548;51.716;8.748;2022-12-22T16:37:45;7.70;84.50
3075;DHT22;1548;51.716;8.748;2022-12-22T16:40:13;7.70;84.50
3075;DHT22;1548;51.716;8.748;2022-12-22T16:42:43;7.60;84.50
3075;DHT22;1548;51.716;8.748;2022-12-22T16:45:21;7.60;84.30
3075;DHT22;1548;51.716;8.748;2022-12-22T16:47:50;7.50;84.50
3075;DHT22;1548;51.716;8.748;2022-12-22T16:50:20;7.40;84.50
3075;DHT22;1548;51.716;8.748;2022-12-22T16:52:46;7.40;84.30
3075;DHT22;1548;51.716;8.748;2022-12-22T16:55:18;7.40;84.50
3075;DHT22;1548;51.716;8.748;2022-12-22T16:57:44;7.40;84.40
3075;DHT22;1548;51.716;8.748;2022-12-22T17:00:29;7.30;84.60
3075;DHT22;1548;51.716;8.748;2022-12-22T17:03:01;7.30;84.60
3075;DHT22;1548;51.716;8.748;2022-12-22T17:05:36;7.30;84.40
3075;DHT22;1548;51.716;8.748;2022-12-22T17:08:06;7.30;84.40
3075;DHT22;1548;51.716;8.748;2022-12-22T17:10:32;7.30;84.60
3075;DHT22;1548;51.716;8.748;2022-12-22T17:12:59;7.40;84.40
3075;DHT22;1548;51.716;8.748;2022-12-22T17:15:25;7.40;84.40
3075;DHT22;1548;51.716;8.748;2022-12-22T17:17:51;7.40;84.50
3075;DHT22;1548;51.716;8.748;2022-12-22T17:20:21;7.40;84.50
3075;DHT22;1548;51.716;8.748;2022-12-22T17:23:23;7.40;84.40
3075;DHT22;1548;51.716;8.748;2022-12-22T17:25:49;7.50;84.40
3075;DHT22;1548;51.716;8.748;2022-12-22T17:28:14;7.60;84.50
3075;DHT22;1548;51.716;8.748;2022-12-22T17:30:40;7.60;84.60
3075;DHT22;1548;51.716;8.748;2022-12-22T17:33:15;7.70;84.60
3075;DHT22;1548;51.716;8.748;2022-12-22T17:35:41;7.70;84.60
3075;DHT22;1548;51.716;8.748;2022-12-22T17:38:15;7.70;84.70
3075;DHT22;1548;51.716;8.748;2022-12-22T17:40:42;7.70;84.80
3075;DHT22;1548;51.716;8.748;2022-12-22T17:43:15;7.70;84.80
3075;DHT22;1548;51.716;8.748;2022-12-22T17:45:42;7.80;84.80
3075;DHT22;1548;51.716;8.748;2022-12-22T17:48:10;7.80;84.80
3075;DHT22;1548;51.716;8.748;2022-12-22T17:50:37;7.80;84.80
3075;DHT22;1548;51.716;8.748;2022-12-22T17:53:04;7.90;84.80
3075;DHT22;1548;51.716;8.748;2022-12-22T17:55:31;7.90;84.90
3075;DHT22;1548;51.716;8.748;2022-12-22T17:57:56;7.90;84.70
3075;DHT22;1548;51.716;8.748;2022-12-22T18:00:30;8.00;84.90
3075;DHT22;1548;51.716;8.748;2022-12-22T18:02:56;8.00;84.90
3075;DHT22;1548;51.716;8.748;2022-12-22T18:05:24;8.00;84.80
3075;DHT22;1548;51.716;8.748;2022-12-22T18:07:52;8.00;84.80
3075;DHT22;1548;51.716;8.748;2022-12-22T18:10:31;8.00;84.70
3075;DHT22;1548;51.716;8.748;2022-12-22T18:12:59;8.10;84.70
3075;DHT22;1548;51.716;8.748;2022-12-22T18:15:27;8.10;84.70
3075;DHT22;1548;51.716;8.748;2022-12-22T18:17:53;8.20;84.60
3075;DHT22;1548;51.716;8.748;2022-12-22T18:20:21;8.20;84.70
3075;DHT22;1548;51.716;8.748;2022-12-22T18:22:54;8.20;84.70
3075;DHT22;1548;51.716;8.748;2022-12-22T18:25:26;8.30;84.70
3075;DHT22;1548;51.716;8.748;2022-12-22T18:27:52;8.30;84.70
3075;DHT22;1548;51.716;8.748;2022-12-22T18:30:27;8.30;84.50
3075;DHT22;1548;51.716;8.748;2022-12-22T18:32:54;8.30;84.80
3075;DHT22;1548;51.716;8.748;2022-12-22T18:35:25;8.40;84.60
3075;DHT22;1548;51.716;8.748;2022-12-22T18:37:51;8.50;84.60